Time;durP1;ratioP1;P1;durP2;ratioP2;P2;SDS_P1;SDS_P2;PMS_P1;PMS_P2;Temp;Humidity;BMP_temperature;BMP_pressure;BME280_temperature;BME280_humidity;BME280_pressure;Samples;Min_cycle;Max_cycle;Signal;HPM_P1;HPM_P2
2021/10/05 00:00:53;;;;;;;0.70;0.60;;;10.80;99.90;;;;;;5016641;28;20264;-69
2021/10/05 00:03:19;;;;;;;0.70;0.50;;;10.70;99.90;;;;;;5021258;28;20200;-69
2021/10/05 00:05:44;;;;;;;0.80;0.70;;;10.70;99.90;;;;;;5028894;28;20182;-69
2021/10/05 00:08:10;;;;;;;0.70;0.60;;;10.60;99.90;;;;;;5024143;28;20266;-69
2021/10/05 00:10:35;;;;;;;0.70;0.50;;;10.70;99.90;;;;;;5022297;28;20245;-69
2021/10/05 00:13:01;;;;;;;1.37;0.70;;;10.70;99.90;;;;;;5030576;28;20203;-69
2021/10/05 00:15:26;;;;;;;1.00;0.90;;;10.70;99.90;;;;;;5018027;28;20192;-69
2021/10/05 00:17:52;;;;;;;1.57;1.23;;;10.70;99.90;;;;;;5014187;28;20644;-69
2021/10/05 00:20:18;;;;;;;1.10;0.97;;;10.70;99.90;;;;;;5031269;28;20538;-69
2021/10/05 00:22:44;;;;;;;1.23;1.13;;;10.60;99.90;;;;;;5030792;28;20207;-69
2021/10/05 00:25:10;;;;;;;9.13;1.20;;;10.50;99.90;;;;;;5026579;28;20182;-69
2021/10/05 00:27:36;;;;;;;0.70;0.50;;;10.40;99.90;;;;;;5011904;28;20493;-69
2021/10/05 00:30:03;;;;;;;0.70;0.50;;;10.40;99.90;;;;;;5026825;28;20920;-69
2021/10/05 00:32:29;;;;;;;0.87;0.70;;;10.40;99.90;;;;;;5021484;28;20168;-69
2021/10/05 00:34:55;;;;;;;0.70;0.50;;;10.30;99.90;;;;;;5028151;28;20521;-69
2021/10/05 00:37:20;;;;;;;1.43;0.90;;;10.40;99.90;;;;;;5012151;28;20160;-69
2021/10/05 00:39:46;;;;;;;0.80;0.60;;;10.30;99.90;;;;;;5021335;28;20171;-69
2021/10/05 00:42:11;;;;;;;1.10;0.90;;;10.40;99.90;;;;;;5026918;28;20194;-69
2021/10/05 00:44:39;;;;;;;0.70;0.50;;;10.40;99.90;;;;;;5029740;28;20183;-69
2021/10/05 00:47:08;;;;;;;0.70;0.57;;;10.40;99.90;;;;;;5031501;28;20981;-69
2021/10/05 00:49:34;;;;;;;0.70;0.60;;;10.30;99.90;;;;;;5031309;28;20438;-68
2021/10/05 00:52:01;;;;;;;0.70;0.50;;;10.40;99.90;;;;;;5024166;28;20438;-69
2021/10/05 00:54:27;;;;;;;6.20;1.00;;;10.30;99.90;;;;;;5017981;28;20457;-69
2021/10/05 00:56:54;;;;;;;1.03;0.70;;;10.40;99.90;;;;;;5026837;28;20450;-69
2021/10/05 00:59:19;;;;;;;1.97;1.87;;;10.30;99.90;;;;;;5025746;28;20427;-69
2021/10/05 01:01:45;;;;;;;0.70;0.50;;;10.30;99.90;;;;;;5028530;28;21066;-69
2021/10/05 01:04:11;;;;;;;0.70;0.60;;;10.30;99.90;;;;;;5011764;28;20302;-69
2021/10/05 01:06:44;;;;;;;2.20;1.17;;;10.40;99.90;;;;;;5011572;28;20164;-69
2021/10/05 01:09:09;;;;;;;1.07;0.97;;;10.40;99.90;;;;;;5022070;28;20481;-69
2021/10/05 01:11:35;;;;;;;0.80;0.77;;;10.40;99.90;;;;;;5011720;28;20787;-69
2021/10/05 01:14:00;;;;;;;0.70;0.50;;;10.40;99.90;;;;;;5011712;28;20188;-69
2021/10/05 01:16:26;;;;;;;1.27;0.67;;;10.40;99.90;;;;;;5011194;28;20669;-68
2021/10/05 01:18:51;;;;;;;1.70;1.60;;;10.30;99.90;;;;;;5010846;28;20164;-69
2021/10/05 01:21:17;;;;;;;1.27;1.13;;;10.40;99.90;;;;;;5016440;28;20176;-69
2021/10/05 01:23:42;;;;;;;0.70;0.50;;;10.40;99.90;;;;;;5034386;28;20194;-68
2021/10/05 01:26:08;;;;;;;1.77;1.47;;;10.30;99.90;;;;;;5031575;28;20270;-68
2021/10/05 01:28:33;;;;;;;1.07;0.97;;;10.20;99.90;;;;;;5032994;28;20179;-68
2021/10/05 01:30:59;;;;;;;1.10;0.70;;;10.30;99.90;;;;;;5034980;28;20247;-69
2021/10/05 01:33:28;;;;;;;0.70;0.60;;;10.30;99.90;;;;;;5034883;28;20198;-68
2021/10/05 01:35:54;;;;;;;1.87;1.00;;;10.30;99.90;;;;;;5031995;28;20205;-70
2021/10/05 01:38:19;;;;;;;0.70;0.50;;;10.30;99.90;;;;;;5033531;28;20406;-69
2021/10/05 01:40:45;;;;;;;0.70;0.60;;;10.30;99.90;;;;;;5025416;28;20426;-69
2021/10/05 01:43:11;;;;;;;2.40;0.97;;;10.40;99.90;;;;;;5014986;28;20260;-69
2021/10/05 01:45:40;;;;;;;0.97;0.67;;;10.40;99.90;;;;;;5031620;28;20234;-68
2021/10/05 01:48:07;;;;;;;0.70;0.50;;;10.40;99.90;;;;;;5031557;28;20207;-69
2021/10/05 01:50:34;;;;;;;0.87;0.80;;;10.30;99.90;;;;;;5031847;28;20426;-69
2021/10/05 01:53:00;;;;;;;0.70;0.50;;;10.30;99.90;;;;;;5034525;28;20476;-69
2021/10/05 01:55:26;;;;;;;0.80;0.70;;;10.30;99.90;;;;;;5025052;28;20453;-68
2021/10/05 01:57:52;;;;;;;0.70;0.50;;;10.30;99.90;;;;;;5031974;28;20495;-69
2021/10/05 02:00:17;;;;;;;3.13;1.07;;;10.40;99.90;;;;;;5027843;28;20172;-68
2021/10/05 02:02:43;;;;;;;0.70;0.50;;;10.30;99.90;;;;;;5032227;28;20196;-68
2021/10/05 02:05:09;;;;;;;0.80;0.70;;;10.30;99.90;;;;;;5034125;28;20175;-68
2021/10/05 02:07:35;;;;;;;0.80;0.70;;;10.40;99.90;;;;;;5033737;28;20258;-69
2021/10/05 02:10:02;;;;;;;2.47;1.03;;;10.40;99.90;;;;;;5030700;28;20179;-69
2021/10/05 02:12:28;;;;;;;0.80;0.70;;;10.30;99.90;;;;;;5032938;28;20426;-69
2021/10/05 02:14:53;;;;;;;0.93;0.83;;;10.30;99.90;;;;;;5031055;28;20833;-69
2021/10/05 02:17:19;;;;;;;0.90;0.80;;;10.30;99.90;;;;;;5018032;28;20255;-68
2021/10/05 02:19:45;;;;;;;0.70;0.50;;;10.30;99.90;;;;;;5020438;28;20226;-68
2021/10/05 02:22:11;;;;;;;0.90;0.80;;;10.40;99.90;;;;;;5014314;28;20443;-69
2021/10/05 02:24:46;;;;;;;0.80;0.70;;;10.40;99.90;;;;;;5030682;28;20286;-69
2021/10/05 02:27:17;;;;;;;1.27;1.17;;;10.40;99.90;;;;;;5025940;28;20185;-69
2021/10/05 02:29:44;;;;;;;0.70;0.50;;;10.40;99.90;;;;;;5032304;28;20432;-70
2021/10/05 02:32:10;;;;;;;1.27;1.17;;;10.40;99.90;;;;;;5028005;28;20460;-68
2021/10/05 02:34:37;;;;;;;1.43;0.70;;;10.40;99.90;;;;;;5032992;28;20454;-69
2021/10/05 02:37:04;;;;;;;2.20;2.10;;;10.40;99.90;;;;;;5033549;28;20893;-69
2021/10/05 02:39:30;;;;;;;0.80;0.70;;;10.40;99.90;;;;;;5028780;28;20458;-69
2021/10/05 02:41:55;;;;;;;2.00;1.90;;;10.40;99.90;;;;;;5015488;28;20482;-68
2021/10/05 02:44:21;;;;;;;2.47;1.20;;;10.40;99.90;;;;;;5016205;28;20196;-68
2021/10/05 02:46:47;;;;;;;0.80;0.70;;;10.40;99.90;;;;;;5013798;28;20314;-67
2021/10/05 02:49:13;;;;;;;0.70;0.50;;;10.50;99.90;;;;;;5024266;28;20533;-68
2021/10/05 02:51:39;;;;;;;0.70;0.50;;;10.50;99.90;;;;;;5033543;28;20427;-68
2021/10/05 02:54:05;;;;;;;0.70;0.50;;;10.60;99.90;;;;;;5032410;28;20452;-69
2021/10/05 02:56:31;;;;;;;0.90;0.73;;;10.50;99.90;;;;;;5021320;28;20462;-68
2021/10/05 02:58:56;;;;;;;3.53;1.27;;;10.50;99.90;;;;;;5025173;28;20176;-69
2021/10/05 03:01:22;;;;;;;0.70;0.50;;;10.50;99.90;;;;;;5024893;28;20191;-69
2021/10/05 03:03:48;;;;;;;1.17;0.83;;;10.50;99.90;;;;;;5029040;28;20560;-69
2021/10/05 03:06:13;;;;;;;0.70;0.60;;;10.50;99.90;;;;;;5028228;28;20175;-69
2021/10/05 03:08:42;;;;;;;2.07;1.97;;;10.50;99.90;;;;;;5030156;28;20760;-69
2021/10/05 03:11:09;;;;;;;0.70;0.50;;;10.50;99.90;;;;;;5013311;28;20210;-70
2021/10/05 03:13:35;;;;;;;0.70;0.50;;;10.30;99.90;;;;;;5013233;28;20427;-69
2021/10/05 03:16:03;;;;;;;0.70;0.60;;;10.30;99.90;;;;;;5016795;28;20454;-68
2021/10/05 03:18:28;;;;;;;0.70;0.60;;;10.40;99.90;;;;;;5015059;28;20474;-69
2021/10/05 03:20:54;;;;;;;0.80;0.70;;;10.40;99.90;;;;;;5032333;28;20461;-69
2021/10/05 03:23:19;;;;;;;1.43;1.33;;;10.40;99.90;;;;;;5032753;28;20649;-69
2021/10/05 03:25:45;;;;;;;0.70;0.53;;;10.40;99.90;;;;;;5028724;28;20229;-69
2021/10/05 03:28:10;;;;;;;0.80;0.70;;;10.20;99.90;;;;;;5024042;28;20259;-69
2021/10/05 03:30:36;;;;;;;0.70;0.50;;;10.30;99.90;;;;;;5022933;28;20195;-69
2021/10/05 03:33:01;;;;;;;1.43;0.80;;;10.30;99.90;;;;;;5025477;28;20234;-69
2021/10/05 03:35:27;;;;;;;0.70;0.50;;;10.30;99.90;;;;;;5032371;28;20602;-68
2021/10/05 03:37:53;;;;;;;0.70;0.60;;;10.30;99.90;;;;;;5028732;28;20198;-68
2021/10/05 03:40:18;;;;;;;1.60;1.33;;;10.20;99.90;;;;;;5017758;28;20180;-68
2021/10/05 03:42:44;;;;;;;0.70;0.50;;;10.30;99.90;;;;;;5018402;28;20202;-68
2021/10/05 03:45:09;;;;;;;1.87;0.77;;;10.30;99.90;;;;;;5032264;28;20593;-68
2021/10/05 03:47:36;;;;;;;0.70;0.53;;;10.30;99.90;;;;;;5031313;28;20194;-69
2021/10/05 03:50:07;;;;;;;3.00;1.80;;;10.20;99.90;;;;;;5017870;28;20188;-69
2021/10/05 03:52:33;;;;;;;1.63;1.53;;;10.20;99.90;;;;;;5014286;28;20442;-70
2021/10/05 03:54:58;;;;;;;0.70;0.50;;;10.30;99.90;;;;;;5022856;28;20462;-70
2021/10/05 03:57:24;;;;;;;0.70;0.70;;;10.30;99.90;;;;;;5029685;28;20190;-69
2021/10/05 03:59:49;;;;;;;0.80;0.77;;;10.30;99.90;;;;;;5030080;28;20648;-70
2021/10/05 04:02:15;;;;;;;0.80;0.60;;;10.20;99.90;;;;;;5016018;28;20234;-70
2021/10/05 04:04:41;;;;;;;0.80;0.60;;;10.20;99.90;;;;;;5012323;28;20186;-69
2021/10/05 04:07:06;;;;;;;0.80;0.80;;;10.30;99.90;;;;;;5010994;28;20180;-70
2021/10/05 04:09:32;;;;;;;0.70;0.50;;;10.40;99.90;;;;;;5024131;28;20619;-70
2021/10/05 04:11:57;;;;;;;0.70;0.60;;;10.40;99.90;;;;;;5030631;28;20258;-69
2021/10/05 04:14:23;;;;;;;0.70;0.50;;;10.20;99.90;;;;;;5030642;28;20199;-69
2021/10/05 04:16:48;;;;;;;0.70;0.50;;;10.20;99.90;;;;;;5020950;28;20207;-69
2021/10/05 04:19:15;;;;;;;0.70;0.50;;;10.20;99.90;;;;;;5017571;28;20262;-70
2021/10/05 04:21:40;;;;;;;0.87;0.80;;;10.20;99.90;;;;;;5030753;28;20544;-68
2021/10/05 04:24:06;;;;;;;0.80;0.70;;;10.20;99.90;;;;;;5025017;28;20477;-69
2021/10/05 04:26:32;;;;;;;0.90;0.70;;;10.20;99.90;;;;;;5018883;28;20182;-68
2021/10/05 04:28:57;;;;;;;0.73;0.57;;;10.10;99.90;;;;;;5030498;28;20172;-68
2021/10/05 04:31:23;;;;;;;0.70;0.50;;;10.10;99.90;;;;;;5017492;28;20704;-69
2021/10/05 04:33:48;;;;;;;0.70;0.50;;;10.10;99.90;;;;;;5013732;28;20188;-68
2021/10/05 04:36:14;;;;;;;0.80;0.70;;;10.10;99.90;;;;;;5024303;28;20211;-69
2021/10/05 04:38:39;;;;;;;0.70;0.50;;;10.20;99.90;;;;;;5013435;28;20183;-69
2021/10/05 04:41:05;;;;;;;0.87;0.87;;;10.20;99.90;;;;;;5031860;28;20164;-69
2021/10/05 04:43:30;;;;;;;1.40;0.90;;;10.20;99.90;;;;;;5028901;28;20231;-69
2021/10/05 04:45:56;;;;;;;1.20;0.80;;;10.20;99.90;;;;;;5030961;28;20287;-68
2021/10/05 04:48:21;;;;;;;0.83;0.60;;;10.20;99.90;;;;;;5029802;28;20203;-69
2021/10/05 04:50:47;;;;;;;0.70;0.50;;;10.20;99.90;;;;;;5031155;28;20187;-69
2021/10/05 04:53:15;;;;;;;0.70;0.53;;;10.20;99.90;;;;;;5030857;28;20282;-68
2021/10/05 04:55:43;;;;;;;0.80;0.63;;;10.20;99.90;;;;;;5020900;28;20211;-68
2021/10/05 04:58:08;;;;;;;0.83;0.70;;;10.20;99.90;;;;;;5015897;28;20430;-68
2021/10/05 05:00:34;;;;;;;0.70;0.50;;;10.20;99.90;;;;;;5025348;28;20426;-70
2021/10/05 05:02:59;;;;;;;0.90;0.80;;;10.20;99.90;;;;;;5035516;28;20555;-69
2021/10/05 05:05:25;;;;;;;0.70;0.60;;;10.10;99.90;;;;;;5033644;28;20191;-68
2021/10/05 05:07:55;;;;;;;0.80;0.70;;;10.10;99.90;;;;;;5035053;28;20163;-68
2021/10/05 05:10:21;;;;;;;0.80;0.70;;;10.20;99.90;;;;;;5033824;28;20184;-68
2021/10/05 05:12:46;;;;;;;0.80;0.70;;;10.10;99.90;;;;;;5035372;28;20765;-69
2021/10/05 05:15:13;;;;;;;0.70;0.60;;;10.20;99.90;;;;;;5034421;28;20203;-69
2021/10/05 05:17:38;;;;;;;3.70;1.07;;;10.20;99.90;;;;;;5035281;28;20286;-69
2021/10/05 05:20:05;;;;;;;0.70;0.50;;;10.10;99.90;;;;;;5024047;28;20470;-69
2021/10/05 05:22:30;;;;;;;0.97;0.87;;;10.20;99.90;;;;;;5034117;28;20205;-69
2021/10/05 05:24:56;;;;;;;1.17;1.07;;;10.20;99.90;;;;;;5021544;28;20426;-69
2021/10/05 05:27:22;;;;;;;0.73;0.60;;;10.20;99.90;;;;;;5032263;28;20782;-69
2021/10/05 05:29:48;;;;;;;1.03;0.93;;;10.20;99.90;;;;;;5033718;28;20267;-68
2021/10/05 05:32:13;;;;;;;0.70;0.50;;;10.30;99.90;;;;;;5034653;28;20492;-69
2021/10/05 05:34:39;;;;;;;0.90;0.70;;;10.30;99.90;;;;;;5019148;28;20218;-69
2021/10/05 05:37:06;;;;;;;1.00;0.70;;;10.40;99.90;;;;;;5034711;28;20883;-69
2021/10/05 05:39:33;;;;;;;0.77;0.73;;;10.40;99.90;;;;;;5025282;28;20168;-69
2021/10/05 05:41:59;;;;;;;0.70;0.50;;;10.50;99.90;;;;;;5015153;28;20408;-68
2021/10/05 05:44:24;;;;;;;0.70;0.50;;;10.50;99.90;;;;;;5014826;28;20851;-69
2021/10/05 05:46:50;;;;;;;0.90;0.77;;;10.50;99.90;;;;;;5031560;28;20220;-69
2021/10/05 05:49:15;;;;;;;0.80;0.50;;;10.60;99.90;;;;;;5028971;28;20172;-69
2021/10/05 05:51:41;;;;;;;0.80;0.60;;;10.60;99.90;;;;;;5034772;28;20164;-69
2021/10/05 05:54:07;;;;;;;0.70;0.60;;;10.60;99.90;;;;;;5033503;28;20190;-69
2021/10/05 05:56:33;;;;;;;0.70;0.60;;;10.60;99.90;;;;;;5028349;28;20488;-69
2021/10/05 05:59:00;;;;;;;3.70;0.90;;;10.50;99.90;;;;;;5032405;28;20242;-68
2021/10/05 06:01:25;;;;;;;2.40;1.10;;;10.50;99.90;;;;;;5029845;28;20481;-69
2021/10/05 06:03:51;;;;;;;0.70;0.50;;;10.60;99.90;;;;;;5023349;28;21038;-68
2021/10/05 06:06:17;;;;;;;1.00;0.90;;;10.50;99.90;;;;;;5032780;28;20259;-68
2021/10/05 06:08:43;;;;;;;1.17;1.07;;;10.60;99.90;;;;;;5029126;28;20183;-68
2021/10/05 06:11:09;;;;;;;0.90;0.90;;;10.60;99.90;;;;;;5034343;28;20409;-68
2021/10/05 06:13:35;;;;;;;0.70;0.50;;;10.60;99.90;;;;;;5033151;28;20453;-68
2021/10/05 06:16:01;;;;;;;0.70;0.50;;;10.60;99.90;;;;;;5030938;28;20541;-68
2021/10/05 06:18:26;;;;;;;0.70;0.60;;;10.60;99.90;;;;;;5026145;28;20184;-68
2021/10/05 06:20:52;;;;;;;0.70;0.50;;;10.60;99.90;;;;;;5015620;28;20242;-69
2021/10/05 06:23:17;;;;;;;0.70;0.50;;;10.70;99.90;;;;;;5030274;28;20199;-68
2021/10/05 06:25:43;;;;;;;0.70;0.50;;;10.80;99.90;;;;;;5025278;28;20768;-69
2021/10/05 06:28:09;;;;;;;0.80;0.70;;;10.80;99.90;;;;;;5033267;28;20176;-69
2021/10/05 06:30:36;;;;;;;0.70;0.50;;;10.80;99.90;;;;;;5030098;28;20172;-69
2021/10/05 06:33:01;;;;;;;0.70;0.50;;;10.90;99.90;;;;;;5029476;28;20850;-69
2021/10/05 06:35:30;;;;;;;0.70;0.50;;;10.90;99.90;;;;;;5032362;28;20477;-68
2021/10/05 06:37:57;;;;;;;0.70;0.60;;;10.90;99.90;;;;;;5032136;28;20485;-71
2021/10/05 06:40:26;;;;;;;0.70;0.50;;;11.00;99.90;;;;;;5014156;28;20489;-70
2021/10/05 06:42:52;;;;;;;0.70;0.50;;;11.00;99.90;;;;;;5013773;28;20416;-69
2021/10/05 06:45:19;;;;;;;0.70;0.60;;;11.10;99.90;;;;;;5027287;28;20430;-69
2021/10/05 06:47:45;;;;;;;1.90;1.80;;;11.00;99.90;;;;;;5032987;28;20954;-69
2021/10/05 06:50:11;;;;;;;1.57;1.47;;;11.10;99.90;;;;;;5025139;28;20426;-69
2021/10/05 06:52:36;;;;;;;1.00;0.80;;;11.20;99.90;;;;;;5024555;28;20215;-69
2021/10/05 06:55:03;;;;;;;0.70;0.50;;;11.20;99.90;;;;;;5015613;28;20337;-68
2021/10/05 06:57:29;;;;;;;0.70;0.57;;;11.30;99.90;;;;;;5011972;28;20271;-69
2021/10/05 06:59:54;;;;;;;0.70;0.50;;;11.30;99.90;;;;;;5024279;28;21012;-69
2021/10/05 07:02:20;;;;;;;0.70;0.60;;;11.40;99.90;;;;;;5032792;28;20233;-69
2021/10/05 07:04:45;;;;;;;2.30;0.70;;;11.50;99.90;;;;;;5032370;28;20183;-70
2021/10/05 07:07:11;;;;;;;1.97;1.03;;;11.60;99.90;;;;;;5024284;28;20187;-69
2021/10/05 07:09:37;;;;;;;0.80;0.80;;;11.80;99.90;;;;;;5031184;28;20580;-69
2021/10/05 07:12:02;;;;;;;2.17;1.53;;;11.80;99.90;;;;;;5025111;28;20179;-69
2021/10/05 07:14:28;;;;;;;0.80;0.60;;;11.90;99.90;;;;;;5019730;28;20249;-69
2021/10/05 07:16:53;;;;;;;1.00;0.70;;;11.80;99.90;;;;;;5031374;28;20198;-69
2021/10/05 07:19:19;;;;;;;0.70;0.50;;;11.90;99.90;;;;;;5027111;28;20171;-69
2021/10/05 07:21:44;;;;;;;1.23;0.63;;;12.00;99.90;;;;;;5020645;28;20179;-71
2021/10/05 07:24:10;;;;;;;2.00;0.80;;;12.00;99.90;;;;;;5032933;28;20192;-70
2021/10/05 07:26:36;;;;;;;0.90;0.70;;;12.20;99.90;;;;;;5022171;28;20545;-70
2021/10/05 07:29:02;;;;;;;0.90;0.77;;;12.20;99.90;;;;;;5018711;28;20175;-69
2021/10/05 07:31:29;;;;;;;2.90;2.70;;;12.10;99.90;;;;;;5031215;28;20427;-69
2021/10/05 07:33:55;;;;;;;0.70;0.60;;;12.10;99.90;;;;;;5031016;28;20199;-69
2021/10/05 07:36:21;;;;;;;0.70;0.50;;;12.20;99.90;;;;;;5013313;28;20469;-70
2021/10/05 07:38:46;;;;;;;0.70;0.60;;;12.20;99.90;;;;;;5020092;28;20637;-70
2021/10/05 07:41:12;;;;;;;0.70;0.53;;;12.40;99.90;;;;;;5032586;28;20160;-69
2021/10/05 07:43:37;;;;;;;0.80;0.70;;;12.60;99.90;;;;;;5031897;28;20187;-69
2021/10/05 07:46:04;;;;;;;1.40;1.30;;;12.60;99.90;;;;;;5030882;28;20537;-70
2021/10/05 07:48:30;;;;;;;1.70;1.50;;;12.70;99.90;;;;;;5020351;28;20184;-70
2021/10/05 07:50:56;;;;;;;0.70;0.50;;;12.80;99.90;;;;;;5030899;28;20552;-70
2021/10/05 07:53:21;;;;;;;2.33;0.93;;;12.90;99.90;;;;;;5032302;28;20517;-70
2021/10/05 07:55:47;;;;;;;0.80;0.70;;;12.90;99.90;;;;;;5017120;28;20461;-70
2021/10/05 07:58:12;;;;;;;0.70;0.50;;;13.30;99.90;;;;;;5018618;28;20195;-70
2021/10/05 08:00:38;;;;;;;0.80;0.70;;;13.40;99.90;;;;;;5028269;28;20172;-70
2021/10/05 08:03:03;;;;;;;1.00;0.90;;;13.50;99.90;;;;;;5012706;28;20250;-70
2021/10/05 08:05:29;;;;;;;0.80;0.80;;;13.60;99.90;;;;;;5026922;28;20183;-70
2021/10/05 08:07:58;;;;;;;0.90;0.70;;;14.00;99.90;;;;;;5027104;28;20179;-71
2021/10/05 08:10:24;;;;;;;0.80;0.80;;;14.30;99.90;;;;;;5026912;28;20229;-70
2021/10/05 08:12:49;;;;;;;1.73;0.90;;;14.40;99.90;;;;;;5031391;28;20825;-70
2021/10/05 08:15:16;;;;;;;3.57;1.37;;;14.70;99.90;;;;;;5023717;28;20208;-69
2021/10/05 08:17:41;;;;;;;0.80;0.80;;;15.10;99.90;;;;;;5012416;28;20231;-70
2021/10/05 08:20:10;;;;;;;2.90;1.93;;;15.50;99.90;;;;;;5017435;28;20427;-70
2021/10/05 08:22:35;;;;;;;0.80;0.60;;;16.00;99.90;;;;;;5020836;28;20195;-70
2021/10/05 08:25:01;;;;;;;0.70;0.60;;;16.40;99.90;;;;;;5030264;28;20916;-70
2021/10/05 08:27:26;;;;;;;0.80;0.70;;;17.10;99.90;;;;;;5030232;28;20271;-70
2021/10/05 08:29:52;;;;;;;0.77;0.60;;;18.20;99.90;;;;;;5024384;28;20230;-71
2021/10/05 08:32:19;;;;;;;1.00;0.90;;;18.80;99.90;;;;;;5012012;28;20168;-70
2021/10/05 08:34:45;;;;;;;0.80;0.60;;;19.50;99.90;;;;;;5013181;28;20472;-70
2021/10/05 08:37:10;;;;;;;0.70;0.60;;;19.90;99.90;;;;;;5024090;28;20923;-70
2021/10/05 08:39:36;;;;;;;2.03;1.10;;;20.80;99.90;;;;;;5019405;28;20176;-70
2021/10/05 08:42:02;;;;;;;1.30;1.00;;;20.60;99.90;;;;;;5018065;28;20210;-70
2021/10/05 08:44:27;;;;;;;0.80;0.67;;;21.10;99.90;;;;;;5029307;28;20274;-70
2021/10/05 08:46:54;;;;;;;0.80;0.60;;;20.40;99.90;;;;;;5011394;28;20411;-70
2021/10/05 08:49:21;;;;;;;1.37;0.97;;;20.00;99.90;;;;;;5016405;28;20179;-70
2021/10/05 08:51:48;;;;;;;0.90;0.70;;;19.80;99.90;;;;;;5012702;28;20841;-71
2021/10/05 08:54:13;;;;;;;0.80;0.70;;;19.10;99.90;;;;;;5016143;28;20516;-70
2021/10/05 08:56:43;;;;;;;0.80;0.60;;;18.50;99.90;;;;;;5012662;28;20545;-71
2021/10/05 08:59:10;;;;;;;1.00;0.77;;;18.10;99.90;;;;;;5031180;28;20178;-70
2021/10/05 09:01:36;;;;;;;0.70;0.50;;;17.80;99.90;;;;;;5031002;28;20426;-72
2021/10/05 09:04:03;;;;;;;0.70;0.60;;;17.70;99.90;;;;;;5029511;28;20568;-70
2021/10/05 09:06:30;;;;;;;1.00;0.80;;;18.30;99.90;;;;;;5030076;28;20198;-71
2021/10/05 09:08:56;;;;;;;0.70;0.50;;;19.10;99.90;;;;;;5030659;28;20430;-70
2021/10/05 09:11:26;;;;;;;0.90;0.70;;;19.30;99.90;;;;;;5023794;28;20434;-70
2021/10/05 09:13:54;;;;;;;1.10;1.00;;;19.50;99.90;;;;;;5022424;28;20481;-70
2021/10/05 09:16:26;;;;;;;0.80;0.60;;;20.30;99.90;;;;;;5011395;28;20893;-71
2021/10/05 09:19:01;;;;;;;0.73;0.50;;;21.10;99.90;;;;;;5012483;28;20431;-70
2021/10/05 09:21:36;;;;;;;0.70;0.50;;;21.80;99.90;;;;;;5011910;28;20427;-70
2021/10/05 09:24:14;;;;;;;1.10;0.87;;;22.10;99.90;;;;;;5015562;28;20442;-71
2021/10/05 09:26:42;;;;;;;1.73;1.23;;;21.40;99.90;;;;;;5029646;28;20430;-71
2021/10/05 09:29:28;;;;;;;0.80;0.60;;;21.70;99.90;;;;;;5031379;28;20501;-71
2021/10/05 09:32:10;;;;;;;0.80;0.67;;;21.80;99.90;;;;;;5031354;28;20500;-70
2021/10/05 09:34:50;;;;;;;0.70;0.60;;;21.90;99.90;;;;;;5026238;28;20814;-71
2021/10/05 09:37:19;;;;;;;0.87;0.80;;;21.10;99.90;;;;;;5031309;28;20957;-71
2021/10/05 09:39:49;;;;;;;0.80;0.60;;;21.00;99.90;;;;;;5018817;28;20430;-71
2021/10/05 09:42:21;;;;;;;0.70;0.50;;;21.00;99.90;;;;;;5025091;28;21061;-70
2021/10/05 09:44:52;;;;;;;0.90;0.70;;;21.00;99.90;;;;;;5033473;28;20449;-70
2021/10/05 09:47:28;;;;;;;0.70;0.57;;;21.00;99.90;;;;;;5034337;28;20406;-71
2021/10/05 09:49:54;;;;;;;0.93;0.73;;;21.20;99.90;;;;;;5033600;28;20457;-69
2021/10/05 09:52:19;;;;;;;0.80;0.70;;;20.90;99.90;;;;;;5019859;28;20443;-70
2021/10/05 09:54:45;;;;;;;1.07;0.73;;;20.70;99.90;;;;;;5026440;28;20183;-67
2021/10/05 09:57:11;;;;;;;0.70;0.50;;;21.40;99.90;;;;;;5014245;28;20218;-69
2021/10/05 09:59:37;;;;;;;0.77;0.60;;;21.50;99.90;;;;;;5014847;28;20442;-70
2021/10/05 10:02:03;;;;;;;0.83;0.70;;;21.50;99.90;;;;;;5028870;28;20880;-69
2021/10/05 10:04:29;;;;;;;0.80;0.50;;;21.50;99.90;;;;;;5026707;28;20191;-70
2021/10/05 10:06:56;;;;;;;0.90;0.60;;;21.20;99.90;;;;;;5023500;28;20445;-68
2021/10/05 10:09:22;;;;;;;0.70;0.53;;;21.40;99.90;;;;;;5025970;28;20521;-68
2021/10/05 10:11:48;;;;;;;0.80;0.60;;;21.60;99.90;;;;;;5033647;28;20444;-68
2021/10/05 10:14:18;;;;;;;0.70;0.50;;;21.90;99.90;;;;;;5021628;28;20462;-71
2021/10/05 10:16:44;;;;;;;2.40;1.97;;;21.90;99.90;;;;;;5029653;28;20459;-69
2021/10/05 10:19:09;;;;;;;0.87;0.77;;;22.30;99.90;;;;;;5031808;28;20429;-70
2021/10/05 10:21:39;;;;;;;0.80;0.70;;;22.60;99.90;;;;;;5021646;28;20184;-69
2021/10/05 10:24:18;;;;;;;0.80;0.60;;;22.10;99.90;;;;;;5025334;28;20242;-70
2021/10/05 10:26:48;;;;;;;0.90;0.60;;;22.00;99.90;;;;;;5027704;28;21042;-69
2021/10/05 10:29:26;;;;;;;0.70;0.50;;;21.70;99.90;;;;;;5031401;28;20422;-68
2021/10/05 10:31:51;;;;;;;0.90;0.60;;;22.30;99.90;;;;;;5028019;28;20517;-68
2021/10/05 10:34:24;;;;;;;2.87;0.80;;;21.60;99.90;;;;;;5019737;28;20533;-68
2021/10/05 10:36:50;;;;;;;0.80;0.60;;;22.60;99.90;;;;;;5033432;28;20195;-70
2021/10/05 10:39:17;;;;;;;1.60;1.10;;;21.50;99.90;;;;;;5025951;28;20423;-69
2021/10/05 10:41:46;;;;;;;0.70;0.60;;;21.70;99.90;;;;;;5033485;28;20418;-69
2021/10/05 10:44:14;;;;;;;1.03;0.70;;;21.40;99.90;;;;;;5027599;28;20439;-70
2021/10/05 10:46:42;;;;;;;0.70;0.57;;;22.70;99.90;;;;;;5025786;28;20433;-70
2021/10/05 10:49:17;;;;;;;0.90;0.77;;;22.50;99.90;;;;;;5029514;28;20479;-69
2021/10/05 10:51:45;;;;;;;0.80;0.50;;;22.60;99.90;;;;;;5033433;28;20974;-69
2021/10/05 10:54:17;;;;;;;1.17;0.90;;;23.10;99.90;;;;;;5032294;28;20442;-70
2021/10/05 10:56:45;;;;;;;0.80;0.50;;;23.20;99.90;;;;;;5030345;28;20549;-70
2021/10/05 10:59:14;;;;;;;0.80;0.50;;;23.40;99.90;;;;;;5030308;28;20426;-70
2021/10/05 11:01:46;;;;;;;0.80;0.60;;;23.10;99.00;;;;;;5031227;28;20430;-69
2021/10/05 11:04:15;;;;;;;0.80;0.53;;;23.00;99.50;;;;;;5033298;28;20414;-70
2021/10/05 11:06:47;;;;;;;1.20;0.70;;;23.20;98.10;;;;;;5029758;28;20437;-69
2021/10/05 11:09:14;;;;;;;0.80;0.60;;;22.80;98.50;;;;;;5028610;28;20442;-70
2021/10/05 11:11:46;;;;;;;1.87;0.60;;;22.50;98.60;;;;;;5032315;28;20435;-69
2021/10/05 11:14:32;;;;;;;0.80;0.60;;;23.10;98.60;;;;;;5021811;28;20494;-70
2021/10/05 11:17:02;;;;;;;0.90;0.77;;;23.40;96.80;;;;;;5013215;28;20465;-70
2021/10/05 11:19:34;;;;;;;0.80;0.60;;;23.60;98.30;;;;;;5027744;28;20429;-69
2021/10/05 11:22:03;;;;;;;0.80;0.60;;;24.40;95.50;;;;;;5032622;28;20415;-69
2021/10/05 11:24:39;;;;;;;0.80;0.60;;;25.20;93.90;;;;;;5017887;28;20442;-70
2021/10/05 11:27:10;;;;;;;0.80;0.60;;;25.70;91.70;;;;;;5023676;28;20434;-70
2021/10/05 11:29:37;;;;;;;0.97;0.87;;;26.00;88.60;;;;;;5031457;28;20414;-69
2021/10/05 11:32:05;;;;;;;0.90;0.70;;;24.40;87.80;;;;;;5032645;28;20801;-70
2021/10/05 11:34:35;;;;;;;0.80;0.70;;;24.90;91.50;;;;;;5031953;28;20446;-70
2021/10/05 11:37:02;;;;;;;1.93;1.07;;;26.00;88.40;;;;;;5032320;28;20464;-70
2021/10/05 11:39:29;;;;;;;0.80;0.60;;;25.80;86.00;;;;;;5026513;28;20422;-71
2021/10/05 11:42:01;;;;;;;0.80;0.60;;;25.10;82.50;;;;;;5031774;28;20465;-69
2021/10/05 11:44:28;;;;;;;0.80;0.53;;;24.40;82.60;;;;;;5031780;28;20978;-70
2021/10/05 11:46:58;;;;;;;0.80;0.60;;;24.60;87.10;;;;;;5031702;28;21094;-70
2021/10/05 11:49:27;;;;;;;0.80;0.50;;;24.00;85.70;;;;;;5029213;28;20426;-69
2021/10/05 11:51:54;;;;;;;2.03;1.20;;;22.40;89.40;;;;;;5032498;28;20417;-70
2021/10/05 11:54:29;;;;;;;0.80;0.57;;;21.70;93.10;;;;;;5026867;28;21004;-70
2021/10/05 11:56:56;;;;;;;0.77;0.57;;;20.70;97.10;;;;;;5025628;28;20464;-69
2021/10/05 11:59:27;;;;;;;0.77;0.60;;;19.90;99.90;;;;;;5031411;28;20476;-70
2021/10/05 12:01:57;;;;;;;0.93;0.60;;;19.50;99.90;;;;;;5030853;28;21033;-69
2021/10/05 12:04:24;;;;;;;0.80;0.63;;;19.20;99.90;;;;;;5018745;28;20481;-70
2021/10/05 12:06:54;;;;;;;2.30;0.60;;;19.20;99.90;;;;;;5029960;28;20441;-70
2021/10/05 12:09:24;;;;;;;1.03;0.83;;;20.00;99.90;;;;;;5028993;28;20827;-71
2021/10/05 12:11:51;;;;;;;0.70;0.50;;;21.70;99.90;;;;;;5031244;28;20452;-70
2021/10/05 12:14:21;;;;;;;0.77;0.60;;;21.00;99.90;;;;;;5029398;28;20454;-70
2021/10/05 12:17:00;;;;;;;3.10;0.80;;;20.80;99.90;;;;;;5031349;28;20450;-70
2021/10/05 12:19:28;;;;;;;0.70;0.50;;;20.50;99.90;;;;;;5031590;28;20517;-71
2021/10/05 12:21:55;;;;;;;0.80;0.67;;;20.30;99.90;;;;;;5029340;28;20446;-70
2021/10/05 12:24:21;;;;;;;1.37;0.70;;;19.90;99.90;;;;;;5024671;28;21039;-70
2021/10/05 12:26:51;;;;;;;0.80;0.63;;;19.30;99.90;;;;;;5031023;28;20505;-72
2021/10/05 12:29:17;;;;;;;0.80;0.70;;;19.10;99.90;;;;;;5031233;28;20682;-70
2021/10/05 12:31:52;;;;;;;1.00;0.70;;;18.80;99.90;;;;;;5028660;28;20423;-70
2021/10/05 12:34:18;;;;;;;0.70;0.50;;;18.70;99.90;;;;;;5029777;28;20453;-72
2021/10/05 12:36:43;;;;;;;0.90;0.60;;;18.60;99.90;;;;;;5030561;28;20981;-69
2021/10/05 12:39:18;;;;;;;0.70;0.60;;;18.80;99.90;;;;;;5029052;28;20705;-70
2021/10/05 12:41:56;;;;;;;0.80;0.60;;;18.60;99.90;;;;;;5031220;28;20174;-70
2021/10/05 12:44:21;;;;;;;0.70;0.50;;;18.80;99.90;;;;;;5030681;28;20482;-69
2021/10/05 12:46:59;;;;;;;5.47;0.63;;;18.80;99.90;;;;;;5013066;28;20446;-73